.
WxDataArchive / Data Records for 2013-03-05
2013-03-04 March 2013 2013-03-06

Data Records for Tuesday, 05 March 2013

Time	Temp	Chill	HIndex	Humid	Dewpt	 Wind 	HiWind	WindDir	Rain 	Barom 
-----	----	-----	------	-----	-----	------	------	-------	-----	----- 
00:00	32.2	32.2	32.2	67	22.5	0	1	90	0.00	30.088 
00:05	32.2	32.2	32.2	67	22.5	1	2	90	0.00	30.088 
00:10	32.1	32.1	32.1	67	22.4	0	1	90	0.00	30.088 
00:15	32.1	32.1	32.1	67	22.4	0	1	90	0.00	30.091 
00:20	32.1	32.1	32.1	67	22.4	0	0	---	0.00	30.091 
00:25	32.1	32.1	32.1	68	22.7	0	3	90	0.00	30.091 
00:30	32.1	32.1	32.1	69	23.1	0	1	90	0.00	30.089 
00:35	32.1	32.1	32.1	69	23.1	1	2	90	0.00	30.089 
00:40	31.9	31.9	31.9	69	22.9	0	1	90	0.00	30.089 
00:45	31.9	31.9	31.9	70	23.2	0	2	90	0.00	30.085 
00:50	31.9	31.9	31.9	72	23.9	0	2	90	0.00	30.085 
00:55	31.8	31.8	31.8	74	24.5	1	3	90	0.00	30.085 
01:00	31.6	31.6	31.6	75	24.6	0	1	90	0.00	30.080 
01:05	31.5	31.5	31.5	76	24.8	0	2	90	0.00	30.080 
01:10	31.3	31.3	31.3	77	24.9	1	2	90	0.00	30.080 
01:15	31.2	31.2	31.2	78	25.2	1	2	90	0.00	30.070 
01:20	31.2	31.2	31.2	79	25.5	1	3	90	0.00	30.070 
01:25	31.0	31.0	31.0	79	25.3	1	4	90	0.00	30.070 
01:30	30.9	30.9	30.9	80	25.5	1	4	90	0.00	30.066 
01:35	30.9	30.9	30.9	81	25.8	1	5	90	0.00	30.066 
01:40	30.9	30.9	30.9	81	25.8	1	4	90	0.00	30.066 
01:45	30.7	30.7	30.7	81	25.6	2	5	112	0.00	30.059 
01:50	30.7	30.7	30.7	81	25.6	1	4	112	0.00	30.059 
01:55	30.6	30.6	30.6	82	25.8	2	5	112	0.00	30.059 
02:00	30.6	30.6	30.6	81	25.5	3	6	90	0.00	30.054 
02:05	30.6	30.6	30.6	81	25.5	2	5	112	0.00	30.054 
02:10	30.6	30.6	30.6	81	25.5	2	6	90	0.00	30.054 
02:15	30.6	30.6	30.6	81	25.5	3	7	112	0.00	30.049 
02:20	30.6	30.6	30.6	81	25.5	3	6	90	0.00	30.049 
02:25	30.6	30.6	30.6	81	25.5	3	6	90	0.00	30.049 
02:30	30.6	30.6	30.6	81	25.5	3	9	112	0.00	30.039 
02:35	30.6	30.6	30.6	80	25.2	3	7	112	0.00	30.039 
02:40	30.6	30.6	30.6	80	25.2	1	6	112	0.00	30.039 
02:45	30.6	30.6	30.6	80	25.2	2	5	112	0.00	30.036 
02:50	30.6	30.6	30.6	79	24.9	2	9	112	0.00	30.036 
02:55	30.4	26.2	30.4	79	24.7	4	8	112	0.00	30.036 
03:00	30.6	30.6	30.6	79	24.9	2	5	90	0.00	30.027 
03:05	30.6	30.6	30.6	79	24.9	2	6	90	0.00	30.027 
03:10	30.6	30.6	30.6	79	24.9	2	9	90	0.00	30.027 
03:15	30.6	30.6	30.6	79	24.9	2	5	112	0.00	30.021 
03:20	30.6	30.6	30.6	78	24.6	3	6	90	0.00	30.021 
03:25	30.6	30.6	30.6	78	24.6	3	6	112	0.00	30.021 
03:30	30.6	30.6	30.6	77	24.3	3	5	90	0.00	30.016 
03:35	30.6	30.6	30.6	78	24.6	2	6	112	0.00	30.016 
03:40	30.6	30.6	30.6	78	24.6	3	10	112	0.00	30.016 
03:45	30.7	26.6	30.7	78	24.7	4	9	112	0.00	30.008 
03:50	30.7	30.7	30.7	78	24.7	2	4	90	0.00	30.008 
03:55	30.7	30.7	30.7	78	24.7	2	7	112	0.00	30.008 
04:00	30.7	30.7	30.7	77	24.4	3	7	90	0.00	30.005 
04:05	30.7	30.7	30.7	77	24.4	3	6	90	0.00	30.005 
04:10	30.7	30.7	30.7	77	24.4	3	7	90	0.00	30.005 
04:15	30.7	30.7	30.7	77	24.4	3	7	90	0.00	30.000 
04:20	30.6	30.6	30.6	77	24.3	2	7	90	0.00	30.000 
04:25	30.4	30.4	30.4	77	24.1	2	7	112	0.00	30.000 
04:30	30.4	30.4	30.4	77	24.1	3	6	112	0.00	29.994 
04:35	30.3	30.3	30.3	77	24.0	3	7	90	0.00	29.994 
04:40	30.3	30.3	30.3	77	24.0	2	5	90	0.00	29.994 
04:45	30.1	30.1	30.1	76	23.5	2	6	112	0.00	29.996 
04:50	30.3	30.3	30.3	75	23.3	3	9	90	0.00	29.996 
04:55	30.3	26.1	30.3	73	22.7	4	12	90	0.00	29.996 
05:00	30.4	26.2	30.4	73	22.8	4	13	90	0.00	29.998 
05:05	30.4	26.2	30.4	73	22.8	4	9	90	0.00	29.998 
05:10	30.4	26.2	30.4	73	22.8	4	7	90	0.00	29.998 
05:15	30.4	26.2	30.4	74	23.1	4	10	90	0.00	29.995 
05:20	30.4	30.4	30.4	74	23.1	3	7	90	0.00	29.995 
05:25	30.4	30.4	30.4	75	23.4	3	6	90	0.00	29.995 
05:30	30.4	25.2	30.4	74	23.1	5	10	90	0.00	29.995 
05:35	30.6	30.6	30.6	74	23.3	3	7	90	0.00	29.995 
05:40	30.6	26.5	30.6	74	23.3	4	11	90	0.00	29.995 
05:45	30.6	26.5	30.6	74	23.3	4	10	90	0.00	29.983 
05:50	30.7	26.6	30.7	74	23.4	4	9	90	0.00	29.983 
05:55	30.7	30.7	30.7	74	23.4	2	7	90	0.00	29.983 
06:00	30.7	30.7	30.7	74	23.4	3	11	112	0.00	29.984 
06:05	30.7	26.6	30.7	74	23.4	4	9	90	0.00	29.984 
06:10	30.7	25.5	30.7	73	23.1	5	13	112	0.00	29.984 
06:15	30.7	26.6	30.7	73	23.1	4	10	112	0.00	29.984 
06:20	30.7	25.5	30.7	73	23.1	5	10	112	0.00	29.984 
06:25	30.7	26.6	30.7	73	23.1	4	10	90	0.00	29.984 
06:30	30.7	26.6	30.7	73	23.1	4	12	90	0.00	29.988 
06:35	30.7	25.5	30.7	73	23.1	5	13	90	0.00	29.988 
06:40	30.7	25.5	30.7	73	23.1	5	11	112	0.00	29.988 
06:45	30.7	26.6	30.7	73	23.1	4	10	112	0.00	29.983 
06:50	30.6	24.6	30.6	73	23.0	6	11	90	0.00	29.983 
06:55	30.6	25.4	30.6	73	23.0	5	13	90	0.00	29.983 
07:00	30.6	24.6	30.6	73	23.0	6	12	112	0.00	29.987 
07:05	30.4	24.3	30.4	73	22.8	6	14	90	0.00	29.987 
07:10	30.4	25.2	30.4	74	23.1	5	9	90	0.00	29.987 
07:15	30.4	25.2	30.4	74	23.1	5	11	90	0.00	29.982 
07:20	30.3	25.1	30.3	74	23.0	5	10	90	0.00	29.982 
07:25	30.3	25.1	30.3	74	23.0	5	13	90	0.00	29.982 
07:30	30.3	25.1	30.3	74	23.0	5	12	90	0.00	29.981 
07:35	30.3	26.1	30.3	74	23.0	4	11	90	0.00	29.981 
07:40	30.3	25.1	30.3	73	22.7	5	15	90	0.00	29.981 
07:45	30.3	26.1	30.3	74	23.0	4	13	90	0.00	29.983 
07:50	30.3	26.1	30.3	74	23.0	4	10	90	0.00	29.983 
07:55	30.3	24.2	30.3	73	22.7	6	13	112	0.00	29.983 
08:00	30.3	24.2	30.3	73	22.7	6	13	90	0.00	29.981 
08:05	30.3	24.2	30.3	73	22.7	6	12	112	0.00	29.981 
08:10	30.1	22.5	30.1	72	22.2	8	15	90	0.00	29.981 
08:15	30.3	25.1	30.3	72	22.4	5	11	90	0.00	29.986 
08:20	30.3	25.1	30.3	72	22.4	5	11	112	0.00	29.986 
08:25	30.3	23.4	30.3	71	22.0	7	16	90	0.00	29.986 
08:30	30.3	24.2	30.3	71	22.0	6	14	90	0.00	29.984 
08:35	30.3	22.8	30.3	70	21.7	8	17	90	0.00	29.984 
08:40	30.3	24.2	30.3	71	22.0	6	17	112	0.00	29.984 
08:45	30.3	23.4	30.3	70	21.7	7	15	90	0.00	29.979 
08:50	30.4	24.3	30.4	71	22.1	6	14	90	0.00	29.979 
08:55	30.4	24.3	30.4	71	22.1	6	13	90	0.00	29.979 
09:00	30.4	25.2	30.4	71	22.1	5	13	90	0.00	29.977 
09:05	30.4	25.2	30.4	71	22.1	5	10	112	0.00	29.977 
09:10	30.4	24.3	30.4	70	21.8	6	16	90	0.00	29.977 
09:15	30.4	23.6	30.4	70	21.8	7	14	112	0.00	29.963 
09:20	30.6	23.8	30.6	70	22.0	7	15	90	0.00	29.963 
09:25	30.6	24.6	30.6	69	21.7	6	12	112	0.00	29.963 
09:30	30.6	23.8	30.6	69	21.7	7	14	112	0.00	29.961 
09:35	30.6	23.8	30.6	69	21.7	7	12	90	0.00	29.961 
09:40	30.7	23.9	30.7	70	22.1	7	14	90	0.00	29.961 
09:45	31.0	25.9	31.0	69	22.0	5	11	90	0.00	29.960 
09:50	31.0	25.0	31.0	69	22.0	6	13	90	0.00	29.960 
09:55	30.7	22.7	30.7	69	21.8	9	17	90	0.00	29.960 
10:00	30.9	24.2	30.9	69	21.9	7	13	90	0.00	29.954 
10:05	30.7	22.7	30.7	69	21.8	9	15	112	0.00	29.954 
10:10	30.7	23.3	30.7	69	21.8	8	17	90	0.00	29.954 
10:15	30.9	24.2	30.9	69	21.9	7	16	90	0.00	29.955 
10:20	31.0	25.0	31.0	69	22.0	6	16	90	0.00	29.955 
10:25	31.0	24.3	31.0	69	22.0	7	12	90	0.00	29.955 
10:30	30.9	24.9	30.9	70	22.3	6	15	90	0.00	29.944 
10:35	30.7	23.9	30.7	70	22.1	7	16	112	0.00	29.944 
10:40	30.7	23.3	30.7	70	22.1	8	13	90	0.00	29.944 
10:45	30.7	23.9	30.7	70	22.1	7	15	90	0.00	29.934 
10:50	30.7	23.9	30.7	71	22.4	7	13	90	0.00	29.934 
10:55	31.0	25.9	31.0	71	22.7	5	13	90	0.00	29.934 
11:00	31.0	25.0	31.0	71	22.7	6	13	90	0.00	29.928 
11:05	30.9	24.2	30.9	71	22.6	7	14	90	0.00	29.928 
11:10	30.9	24.9	30.9	71	22.6	6	12	90	0.00	29.928 
11:15	30.9	23.5	30.9	71	22.6	8	15	90	0.00	29.924 
11:20	31.0	24.3	31.0	72	23.1	7	13	90	0.00	29.924 
11:25	30.7	23.3	30.7	75	23.7	8	14	112	0.00	29.924 
11:30	30.4	24.3	30.4	77	24.1	6	13	90	0.00	29.916 
11:35	30.3	25.1	30.3	79	24.6	5	14	90	0.00	29.916 
11:40	30.0	23.8	30.0	81	24.9	6	12	90	0.00	29.916 
11:45	30.0	25.8	30.0	83	25.5	4	12	90	0.00	29.912 
11:50	29.7	23.5	29.7	84	25.5	6	13	90	0.00	29.912 
11:55	29.5	23.3	29.5	85	25.6	6	15	90	0.00	29.912 
12:00	29.7	23.5	29.7	86	26.0	6	13	112	0.00	29.888 
12:05	29.8	24.5	29.8	87	26.4	5	13	90	0.00	29.888 
12:10	29.7	22.7	29.7	86	26.0	7	15	90	0.00	29.888 
12:15	29.7	25.4	29.7	87	26.3	4	10	90	0.00	29.889 
12:20	29.7	24.4	29.7	87	26.3	5	13	90	0.00	29.889 
12:25	29.5	24.1	29.5	87	26.1	5	10	90	0.00	29.889 
12:30	29.5	24.1	29.5	88	26.4	5	11	90	0.00	29.886 
12:35	29.5	24.1	29.5	88	26.4	5	11	90	0.00	29.886 
12:40	29.5	25.2	29.5	88	26.4	4	10	90	0.00	29.886 
12:45	29.5	22.5	29.5	88	26.4	7	13	90	0.00	29.870 
12:50	29.5	25.2	29.5	88	26.4	4	10	90	0.00	29.870 
12:55	29.7	22.7	29.7	88	26.6	7	12	90	0.00	29.870 
13:00	29.7	24.4	29.7	88	26.6	5	12	90	0.00	29.862 
13:05	29.8	23.6	29.8	88	26.7	6	12	112	0.00	29.862 
13:10	29.8	23.6	29.8	88	26.7	6	16	90	0.00	29.862 
13:15	29.8	24.5	29.8	88	26.7	5	12	90	0.00	29.856 
13:20	30.0	25.8	30.0	88	26.9	4	12	112	0.00	29.856 
13:25	30.0	24.7	30.0	87	26.6	5	11	90	0.00	29.856 
13:30	30.1	24.8	30.1	87	26.7	5	11	90	0.00	29.843 
13:35	30.1	25.9	30.1	87	26.7	4	11	90	0.00	29.843 
13:40	30.3	25.1	30.3	87	26.9	5	13	90	0.00	29.843 
13:45	30.3	24.2	30.3	86	26.6	6	11	90	0.00	29.834 
13:50	30.4	25.2	30.4	86	26.7	5	10	90	0.00	29.834 
13:55	30.6	30.6	30.6	86	26.9	3	7	90	0.00	29.834 
14:00	30.4	24.3	30.4	86	26.7	6	14	90	0.00	29.823 
14:05	30.4	24.3	30.4	87	27.0	6	15	90	0.00	29.823 
14:10	30.3	24.2	30.3	87	26.9	6	16	90	0.00	29.823 
14:15	30.4	25.2	30.4	87	27.0	5	11	90	0.00	29.812 
14:20	30.4	24.3	30.4	87	27.0	6	13	90	0.00	29.812 
14:25	30.4	25.2	30.4	87	27.0	5	13	90	0.00	29.812 
14:30	30.6	24.6	30.6	87	27.2	6	12	90	0.00	29.803 
14:35	30.6	24.6	30.6	87	27.2	6	13	90	0.00	29.803 
14:40	30.6	24.6	30.6	87	27.2	6	15	90	0.00	29.803 
14:45	30.7	26.6	30.7	87	27.3	4	12	90	0.00	29.789 
14:50	30.7	25.5	30.7	88	27.6	5	11	90	0.00	29.789 
14:55	30.7	25.5	30.7	88	27.6	5	11	90	0.00	29.789 
15:00	30.7	23.9	30.7	88	27.6	7	16	90	0.00	29.783 
15:05	30.6	24.6	30.6	87	27.2	6	16	90	0.00	29.783 
15:10	30.4	23.6	30.4	87	27.0	7	19	112	0.00	29.783 
15:15	30.4	23.6	30.4	88	27.3	7	14	90	0.00	29.775 
15:20	30.4	25.2	30.4	88	27.3	5	13	90	0.00	29.775 
15:25	30.4	25.2	30.4	88	27.3	5	12	112	0.00	29.775 
15:30	30.4	25.2	30.4	88	27.3	5	12	90	0.00	29.774 
15:35	30.4	26.2	30.4	89	27.6	4	11	90	0.00	29.774 
15:40	30.3	25.1	30.3	89	27.5	5	12	90	0.00	29.774 
15:45	30.1	24.8	30.1	89	27.3	5	12	90	0.00	29.765 
15:50	30.1	24.0	30.1	89	27.3	6	15	112	0.00	29.765 
15:55	30.0	23.8	30.0	89	27.2	6	13	90	0.00	29.765 
16:00	30.0	23.8	30.0	89	27.2	6	11	112	0.00	29.756 
16:05	29.8	24.5	29.8	89	27.0	5	14	90	0.00	29.756 
16:10	29.7	25.4	29.7	88	26.6	4	14	112	0.00	29.756 
16:15	29.7	24.4	29.7	88	26.6	5	11	112	0.00	29.753 
16:20	29.5	24.1	29.5	88	26.4	5	13	90	0.00	29.753 
16:25	29.4	23.1	29.4	88	26.3	6	14	112	0.00	29.753 
16:30	29.3	23.0	29.3	88	26.2	6	16	112	0.00	29.746 
16:35	29.1	22.0	29.1	88	26.0	7	16	112	0.00	29.746 
16:40	29.1	22.0	29.1	88	26.0	7	16	90	0.00	29.746 
16:45	29.1	24.7	29.1	89	26.3	4	15	90	0.00	29.740 
16:50	29.1	29.1	29.1	89	26.3	3	11	90	0.00	29.740 
16:55	29.1	29.1	29.1	89	26.3	3	9	90	0.00	29.740 
17:00	29.0	23.6	29.0	90	26.4	5	15	90	0.00	29.732 
17:05	28.7	24.3	28.7	90	26.1	4	11	112	0.00	29.732 
17:10	28.4	23.9	28.4	90	25.8	4	16	90	0.00	29.732 
17:15	28.1	23.6	28.1	91	25.8	4	11	90	0.00	29.725 
17:20	27.9	22.3	27.9	91	25.6	5	12	90	0.00	29.725 
17:25	27.8	27.8	27.8	91	25.5	3	11	90	0.00	29.725 
17:30	27.8	27.8	27.8	92	25.8	3	10	90	0.00	29.722 
17:35	27.8	27.8	27.8	92	25.8	3	7	90	0.00	29.722 
17:40	27.6	23.0	27.6	92	25.6	4	11	90	0.00	29.722 
17:45	27.6	23.0	27.6	92	25.6	4	11	90	0.00	29.725 
17:50	27.6	27.6	27.6	92	25.6	2	6	68	0.00	29.725 
17:55	27.6	27.6	27.6	92	25.6	3	11	112	0.00	29.725 
18:00	27.5	27.5	27.5	92	25.5	3	10	112	0.00	29.725 
18:05	27.5	27.5	27.5	92	25.5	2	10	90	0.00	29.725 
18:10	27.3	21.6	27.3	92	25.3	5	12	112	0.00	29.725 
18:15	27.3	21.6	27.3	92	25.3	5	15	90	0.00	29.728 
18:20	27.2	27.2	27.2	92	25.2	3	10	90	0.00	29.728 
18:25	27.2	22.5	27.2	92	25.2	4	11	112	0.00	29.728 
18:30	27.2	22.5	27.2	93	25.4	4	13	90	0.00	29.729 
18:35	27.2	27.2	27.2	93	25.4	2	9	90	0.00	29.729 
18:40	27.2	27.2	27.2	93	25.4	2	7	112	0.00	29.729 
18:45	27.2	27.2	27.2	93	25.4	3	10	90	0.00	29.729 
18:50	27.2	27.2	27.2	93	25.4	1	6	45	0.00	29.729 
18:55	27.2	27.2	27.2	93	25.4	3	10	90	0.00	29.729 
19:00	27.2	27.2	27.2	93	25.4	2	6	22	0.00	29.731 
19:05	27.2	27.2	27.2	93	25.4	1	10	90	0.00	29.731 
19:10	27.2	27.2	27.2	93	25.4	3	11	68	0.00	29.731 
19:15	27.2	27.2	27.2	93	25.4	2	6	45	0.00	29.731 
19:20	27.2	27.2	27.2	93	25.4	3	6	112	0.00	29.731 
19:25	27.2	27.2	27.2	93	25.4	2	7	90	0.00	29.731 
19:30	27.2	27.2	27.2	93	25.4	2	10	68	0.00	29.730 
19:35	27.3	27.3	27.3	93	25.5	2	9	45	0.00	29.730 
19:40	27.3	27.3	27.3	93	25.5	2	7	90	0.00	29.730 
19:45	27.5	27.5	27.5	93	25.7	2	5	90	0.00	29.727 
19:50	27.5	27.5	27.5	94	26.0	2	6	90	0.00	29.727 
19:55	27.5	27.5	27.5	94	26.0	3	9	68	0.00	29.727 
20:00	27.6	27.6	27.6	94	26.1	2	7	68	0.00	29.729 
20:05	27.6	27.6	27.6	94	26.1	2	7	112	0.00	29.729 
20:10	27.8	27.8	27.8	94	26.3	2	11	90	0.00	29.729 
20:15	27.9	27.9	27.9	94	26.4	3	7	112	0.00	29.740 
20:20	27.9	27.9	27.9	94	26.4	2	7	90	0.00	29.740 
20:25	28.1	28.1	28.1	94	26.6	2	7	112	0.00	29.740 
20:30	28.1	28.1	28.1	94	26.6	2	9	45	0.00	29.741 
20:35	28.1	28.1	28.1	94	26.6	2	6	90	0.00	29.741 
20:40	28.1	28.1	28.1	94	26.6	3	9	90	0.00	29.741 
20:45	28.2	28.2	28.2	94	26.7	2	6	68	0.00	29.739 
20:50	28.2	28.2	28.2	94	26.7	1	4	45	0.00	29.739 
20:55	28.2	28.2	28.2	94	26.7	1	6	45	0.00	29.739 
21:00	28.2	28.2	28.2	94	26.7	2	7	112	0.00	29.745 
21:05	28.2	28.2	28.2	94	26.7	3	9	112	0.00	29.745 
21:10	28.1	28.1	28.1	94	26.6	3	10	112	0.00	29.745 
21:15	28.1	28.1	28.1	94	26.6	3	11	90	0.00	29.744 
21:20	27.9	27.9	27.9	94	26.4	2	6	112	0.00	29.744 
21:25	27.9	27.9	27.9	94	26.4	1	4	68	0.00	29.744 
21:30	28.1	28.1	28.1	94	26.6	1	4	45	0.00	29.744 
21:35	28.1	28.1	28.1	94	26.6	1	4	68	0.00	29.744 
21:40	27.9	27.9	27.9	94	26.4	2	5	45	0.00	29.744 
21:45	27.9	27.9	27.9	94	26.4	1	6	90	0.00	29.747 
21:50	27.9	27.9	27.9	94	26.4	2	6	0	0.00	29.747 
21:55	27.8	27.8	27.8	94	26.3	2	7	90	0.00	29.747 
22:00	27.8	27.8	27.8	94	26.3	2	9	68	0.00	29.752 
22:05	27.8	27.8	27.8	94	26.3	2	6	90	0.00	29.752 
22:10	27.8	27.8	27.8	94	26.3	2	9	68	0.00	29.752 
22:15	27.8	27.8	27.8	94	26.3	2	5	112	0.00	29.757 
22:20	27.8	27.8	27.8	94	26.3	2	5	90	0.00	29.757 
22:25	27.8	27.8	27.8	94	26.3	2	7	22	0.00	29.757 
22:30	27.8	27.8	27.8	94	26.3	2	6	22	0.00	29.761 
22:35	27.8	27.8	27.8	94	26.3	3	9	90	0.00	29.761 
22:40	27.8	27.8	27.8	94	26.3	2	7	68	0.00	29.761 
22:45	27.8	27.8	27.8	94	26.3	2	7	45	0.00	29.764 
22:50	27.8	27.8	27.8	94	26.3	2	7	68	0.00	29.764 
22:55	27.9	27.9	27.9	98	27.4	2	6	68	0.00	29.764 
23:00	27.9	27.9	27.9	95	26.7	2	5	90	0.00	29.773 
23:05	27.9	27.9	27.9	95	26.7	2	7	90	0.00	29.773 
23:10	27.9	27.9	27.9	95	26.7	2	6	45	0.00	29.773 
23:15	27.9	27.9	27.9	95	26.7	2	8	68	0.00	29.776 
23:20	28.1	28.1	28.1	95	26.9	2	4	112	0.00	29.776 
23:25	28.1	28.1	28.1	95	26.9	2	10	68	0.00	29.776 
23:30	28.2	28.2	28.2	95	27.0	2	5	68	0.00	29.777 
23:35	28.2	28.2	28.2	95	27.0	1	6	22	0.00	29.777 
23:40	28.2	28.2	28.2	95	27.0	1	4	68	0.00	29.777 
23:45	28.4	28.4	28.4	95	27.2	1	7	22	0.00	29.779 
23:50	28.4	28.4	28.4	95	27.2	2	7	315	0.00	29.779 
23:55	28.4	28.4	28.4	95	27.2	2	6	45	0.00	29.779 

CoCoRaHS
IN-AL-39
A2 Web Hosting
Creative Commons License
GoDaddy
search engine by freefind advanced

loaded 2018-11-12 15:36:28 • last modified 2010-11-18 10:43:29
Privacy PolicyDisclaimer
• wx.awcolley.com is powered by PmWiki v.2002016 •
• all content (unless otherwise noted) © 2018 A W Colley